createdAt,value
2018-05-13T00:00:54.252Z,5.37
2018-05-13T00:03:21.775Z,4.90
2018-05-13T00:05:49.238Z,5.68
2018-05-13T00:08:16.690Z,5.55
2018-05-13T00:10:44.202Z,5.57
2018-05-13T00:13:11.807Z,5.35
2018-05-13T00:15:39.257Z,5.75
2018-05-13T00:18:06.762Z,5.25
2018-05-13T00:20:40.553Z,5.40
2018-05-13T00:23:08.871Z,6.22
2018-05-13T00:25:36.471Z,5.57
2018-05-13T00:28:03.910Z,6.35
2018-05-13T00:30:31.361Z,7.10
2018-05-13T00:32:58.850Z,5.30
2018-05-13T00:35:27.421Z,5.22
2018-05-13T00:37:55.213Z,6.55
2018-05-13T00:40:22.676Z,6.62
2018-05-13T00:42:50.126Z,4.53
2018-05-13T00:45:17.593Z,5.60
2018-05-13T00:47:45.033Z,7.12
2018-05-13T00:50:12.517Z,6.18
2018-05-13T00:52:39.974Z,4.30
2018-05-13T00:55:07.447Z,4.53
2018-05-13T00:57:34.872Z,5.00
2018-05-13T01:00:02.286Z,4.75
2018-05-13T01:02:29.695Z,4.80
2018-05-13T01:04:57.144Z,4.80
2018-05-13T01:07:43.320Z,5.53
2018-05-13T01:10:10.746Z,5.80
2018-05-13T01:12:38.199Z,3.75
2018-05-13T01:15:05.992Z,4.72
2018-05-13T01:17:34.064Z,5.30
2018-05-13T01:20:08.476Z,4.68
2018-05-13T01:22:35.903Z,3.80
2018-05-13T01:25:03.336Z,4.22
2018-05-13T01:27:30.765Z,3.25
2018-05-13T01:29:58.224Z,2.85
2018-05-13T01:32:25.675Z,5.40
2018-05-13T01:34:53.140Z,3.62
2018-05-13T01:37:20.590Z,4.50
2018-05-13T01:39:48.072Z,4.40
2018-05-13T01:42:15.473Z,6.10
2018-05-13T01:44:42.936Z,3.60
2018-05-13T01:47:11.692Z,5.32
2018-05-13T01:49:39.147Z,3.70
2018-05-13T01:52:06.580Z,4.50
2018-05-13T01:54:34.059Z,4.57
2018-05-13T01:57:01.468Z,3.55
2018-05-13T01:59:28.899Z,4.93
2018-05-13T02:01:56.317Z,4.45
2018-05-13T02:04:24.178Z,4.40
2018-05-13T02:06:51.640Z,4.78
2018-05-13T02:09:19.741Z,4.60
2018-05-13T02:11:47.146Z,4.55
2018-05-13T02:14:14.596Z,4.80
2018-05-13T02:16:42.065Z,3.55
2018-05-13T02:19:10.159Z,4.35
2018-05-13T02:21:40.759Z,3.70
2018-05-13T02:24:08.151Z,4.15
2018-05-13T02:26:35.547Z,2.97
2018-05-13T02:29:03.131Z,3.78
2018-05-13T02:31:31.492Z,2.65
2018-05-13T02:33:58.883Z,3.80
2018-05-13T02:36:26.332Z,3.67
2018-05-13T02:38:53.816Z,3.20
2018-05-13T02:41:21.282Z,2.10
2018-05-13T02:43:48.897Z,2.45
2018-05-13T02:46:16.356Z,2.97
2018-05-13T02:48:43.809Z,3.80
2018-05-13T02:51:11.240Z,2.60
2018-05-13T02:53:38.682Z,1.58
2018-05-13T02:56:08.769Z,1.23
2018-05-13T02:58:36.196Z,1.95
2018-05-13T03:01:03.833Z,1.48
2018-05-13T03:03:31.291Z,1.45
2018-05-13T03:05:58.732Z,1.12
2018-05-13T03:08:31.249Z,1.60
2018-05-13T03:10:58.739Z,1.42
2018-05-13T03:13:26.176Z,1.58
2018-05-13T03:15:53.617Z,1.30
2018-05-13T03:18:21.063Z,1.23
2018-05-13T03:20:48.520Z,1.50
2018-05-13T03:23:16.035Z,1.27
2018-05-13T03:25:43.443Z,1.00
2018-05-13T03:28:10.846Z,0.90
2018-05-13T03:30:38.292Z,0.98
2018-05-13T03:33:05.717Z,0.95
2018-05-13T03:35:33.235Z,1.25
2018-05-13T03:38:00.944Z,0.95
2018-05-13T03:40:28.365Z,1.10
2018-05-13T03:42:56.409Z,1.70
2018-05-13T03:45:23.876Z,1.20
2018-05-13T03:47:51.324Z,1.60
2018-05-13T03:50:18.789Z,1.00
2018-05-13T03:52:46.211Z,0.98
2018-05-13T03:55:14.099Z,0.88
2018-05-13T03:57:41.527Z,0.70
2018-05-13T04:00:09.088Z,0.90
2018-05-13T04:02:36.587Z,0.90
2018-05-13T04:05:04.042Z,0.90
2018-05-13T04:07:31.465Z,0.77
2018-05-13T04:10:10.629Z,0.88
2018-05-13T04:12:50.009Z,0.60
2018-05-13T04:15:21.048Z,0.75
2018-05-13T04:17:48.470Z,0.62
2018-05-13T04:20:15.867Z,0.70
2018-05-13T04:22:43.308Z,0.95
2018-05-13T04:25:10.740Z,1.00
2018-05-13T04:27:38.161Z,0.80
2018-05-13T04:30:05.604Z,0.80
2018-05-13T04:32:33.381Z,0.82
2018-05-13T04:35:00.796Z,1.33
2018-05-13T04:37:28.234Z,0.88
2018-05-13T04:39:55.650Z,0.90
2018-05-13T04:42:23.039Z,1.02
2018-05-13T04:44:50.472Z,0.93
2018-05-13T04:47:17.900Z,0.70
2018-05-13T04:49:45.327Z,0.85
2018-05-13T04:52:12.808Z,1.17
2018-05-13T04:54:40.284Z,0.80
2018-05-13T04:57:07.764Z,0.70
2018-05-13T04:59:35.224Z,0.80
2018-05-13T05:02:02.674Z,0.75
2018-05-13T05:04:30.236Z,0.80
2018-05-13T05:06:57.673Z,0.77
2018-05-13T05:09:25.878Z,0.80
2018-05-13T05:11:54.529Z,0.85
2018-05-13T05:14:21.971Z,0.80
2018-05-13T05:16:49.395Z,1.20
2018-05-13T05:19:16.797Z,0.77
2018-05-13T05:21:44.233Z,0.90
2018-05-13T05:24:11.669Z,0.60
2018-05-13T05:26:39.393Z,0.88
2018-05-13T05:29:06.837Z,0.88
2018-05-13T05:31:34.271Z,0.90
2018-05-13T05:34:01.731Z,0.88
2018-05-13T05:36:29.185Z,0.80
2018-05-13T05:38:56.632Z,1.00
2018-05-13T05:41:24.024Z,0.70
2018-05-13T05:43:51.452Z,1.00
2018-05-13T05:46:18.885Z,0.70
2018-05-13T05:48:47.466Z,0.80
2018-05-13T05:51:14.960Z,0.93
2018-05-13T05:53:42.358Z,0.90
2018-05-13T05:56:09.832Z,0.70
2018-05-13T05:58:37.248Z,0.90
2018-05-13T06:01:04.703Z,0.80
2018-05-13T06:03:32.142Z,0.75
2018-05-13T06:05:59.578Z,0.85
2018-05-13T06:08:27.010Z,0.68
2018-05-13T06:10:54.432Z,0.68
2018-05-13T06:13:21.875Z,1.10
2018-05-13T06:15:49.278Z,0.70
2018-05-13T06:18:16.749Z,0.80
2018-05-13T06:20:44.144Z,0.60
2018-05-13T06:23:12.100Z,0.70
2018-05-13T06:25:39.498Z,0.80
2018-05-13T06:28:07.050Z,0.73
2018-05-13T06:30:34.533Z,0.90
2018-05-13T06:33:01.932Z,0.93
2018-05-13T06:35:29.374Z,0.77
2018-05-13T06:37:57.382Z,1.00
2018-05-13T06:40:25.148Z,0.90
2018-05-13T06:42:52.546Z,0.70
2018-05-13T06:45:20.091Z,0.98
2018-05-13T06:47:47.475Z,1.12
2018-05-13T06:50:18.640Z,0.80
2018-05-13T06:52:46.099Z,0.90
2018-05-13T06:55:14.963Z,0.70
2018-05-13T06:57:42.470Z,0.80
2018-05-13T07:00:09.908Z,1.08
2018-05-13T07:02:37.332Z,0.80
2018-05-13T07:05:04.758Z,0.85
2018-05-13T07:07:32.162Z,0.70
2018-05-13T07:09:59.585Z,0.75
2018-05-13T07:12:27.005Z,0.80
2018-05-13T07:14:55.204Z,1.05
2018-05-13T07:17:22.624Z,0.60
2018-05-13T07:19:50.027Z,1.05
2018-05-13T07:22:17.455Z,0.50
2018-05-13T07:24:44.887Z,0.50
2018-05-13T07:27:13.288Z,0.95
2018-05-13T07:29:40.735Z,0.80
2018-05-13T07:32:08.220Z,0.50
2018-05-13T07:34:35.691Z,0.60
2018-05-13T07:37:03.131Z,0.60
2018-05-13T07:39:30.590Z,0.60
2018-05-13T07:41:58.045Z,0.60
2018-05-13T07:44:25.482Z,0.80
2018-05-13T07:46:53.049Z,0.68
2018-05-13T07:49:21.913Z,0.60
2018-05-13T07:51:49.423Z,0.90
2018-05-13T07:54:16.826Z,0.60
2018-05-13T07:56:44.321Z,1.00
2018-05-13T07:59:13.413Z,0.88
2018-05-13T08:01:40.891Z,0.80
2018-05-13T08:04:08.360Z,0.60
2018-05-13T08:06:35.780Z,0.60
2018-05-13T08:09:03.212Z,0.60
2018-05-13T08:11:31.024Z,0.70
2018-05-13T08:13:59.041Z,0.70
2018-05-13T08:16:26.592Z,0.68
2018-05-13T08:18:59.538Z,0.70
2018-05-13T08:21:26.964Z,0.93
2018-05-13T08:23:54.403Z,0.62
2018-05-13T08:26:21.872Z,0.50
2018-05-13T08:28:49.267Z,0.60
2018-05-13T08:31:18.288Z,0.57
2018-05-13T08:33:45.684Z,0.88
2018-05-13T08:36:13.108Z,0.60
2018-05-13T08:38:42.559Z,0.57
2018-05-13T08:41:10.819Z,1.00
2018-05-13T08:43:38.290Z,0.90
2018-05-13T08:46:05.688Z,0.60
2018-05-13T08:48:33.249Z,0.60
2018-05-13T08:51:00.595Z,0.65
2018-05-13T08:53:28.012Z,0.68
2018-05-13T08:55:55.406Z,0.60
2018-05-13T08:58:22.859Z,0.60
2018-05-13T09:00:50.281Z,0.65
2018-05-13T09:03:17.716Z,0.80
2018-05-13T09:05:45.170Z,0.70
2018-05-13T09:08:12.670Z,0.50
2018-05-13T09:10:40.132Z,0.55
2018-05-13T09:13:07.589Z,0.90
2018-05-13T09:15:35.027Z,0.70
2018-05-13T09:18:02.554Z,0.70
2018-05-13T09:20:30.062Z,1.10
2018-05-13T09:22:57.448Z,0.80
2018-05-13T09:25:24.926Z,0.70
2018-05-13T09:27:53.884Z,0.70
2018-05-13T09:30:21.303Z,0.62
2018-05-13T09:32:51.512Z,0.60
2018-05-13T09:35:18.944Z,1.95
2018-05-13T09:37:46.448Z,1.15
2018-05-13T09:40:13.854Z,0.73
2018-05-13T09:42:41.305Z,0.70
2018-05-13T09:45:08.735Z,1.08
2018-05-13T09:47:36.139Z,0.80
2018-05-13T09:50:04.168Z,0.60
2018-05-13T09:52:31.638Z,0.70
2018-05-13T09:54:59.837Z,0.60
2018-05-13T09:57:27.265Z,0.70
2018-05-13T09:59:54.686Z,0.90
2018-05-13T10:02:22.179Z,0.62
2018-05-13T10:04:49.746Z,0.75
2018-05-13T10:07:17.177Z,0.82
2018-05-13T10:09:44.575Z,0.60
2018-05-13T10:12:12.058Z,0.77
2018-05-13T10:14:39.493Z,0.60
2018-05-13T10:17:06.968Z,0.60
2018-05-13T10:19:34.406Z,0.52
2018-05-13T10:22:01.831Z,0.70
2018-05-13T10:24:29.298Z,0.60
2018-05-13T10:26:58.023Z,0.80
2018-05-13T10:29:25.479Z,0.65
2018-05-13T10:31:57.897Z,0.77
2018-05-13T10:34:25.299Z,0.65
2018-05-13T10:36:52.777Z,0.80
2018-05-13T10:39:20.244Z,0.93
2018-05-13T10:41:49.527Z,1.10
2018-05-13T10:44:16.971Z,0.60
2018-05-13T10:46:44.405Z,0.60
2018-05-13T10:49:12.211Z,0.80
2018-05-13T10:51:39.677Z,1.65
2018-05-13T10:54:07.325Z,0.80
2018-05-13T10:56:34.816Z,0.80
2018-05-13T10:59:02.233Z,0.60
2018-05-13T11:01:29.626Z,0.60
2018-05-13T11:03:57.035Z,0.73
2018-05-13T11:06:24.536Z,1.35
2018-05-13T11:08:52.007Z,0.70
2018-05-13T11:11:19.396Z,0.90
2018-05-13T11:13:47.627Z,0.70
2018-05-13T11:16:15.966Z,0.80
2018-05-13T11:18:43.901Z,0.70
2018-05-13T11:21:11.326Z,2.87
2018-05-13T11:23:38.751Z,0.73
2018-05-13T11:26:06.180Z,1.17
2018-05-13T11:28:33.640Z,1.37
2018-05-13T11:31:02.729Z,0.70
2018-05-13T11:33:30.163Z,0.70
2018-05-13T11:35:57.633Z,0.80
2018-05-13T11:38:25.174Z,0.70
2018-05-13T11:40:52.631Z,0.80
2018-05-13T11:43:20.088Z,0.85
2018-05-13T11:45:47.567Z,1.70
2018-05-13T11:48:15.021Z,0.82
2018-05-13T11:50:42.475Z,0.70
2018-05-13T11:53:12.493Z,0.90
2018-05-13T11:55:40.043Z,1.10
2018-05-13T11:58:07.521Z,0.82
2018-05-13T12:00:34.973Z,0.95
2018-05-13T12:03:02.446Z,0.60
2018-05-13T12:05:29.880Z,0.93
2018-05-13T12:07:57.324Z,0.90
2018-05-13T12:10:24.800Z,0.60
2018-05-13T12:12:52.231Z,1.10
2018-05-13T12:15:19.688Z,0.95
2018-05-13T12:17:47.114Z,1.12
2018-05-13T12:20:14.569Z,1.00
2018-05-13T12:22:42.065Z,0.88
2018-05-13T12:25:09.494Z,0.73
2018-05-13T12:27:36.924Z,0.90
2018-05-13T12:30:04.401Z,1.15
2018-05-13T12:32:31.794Z,0.90
2018-05-13T12:34:59.257Z,0.70
2018-05-13T12:37:27.545Z,0.70
2018-05-13T12:39:54.986Z,0.70
2018-05-13T12:42:22.519Z,1.42
2018-05-13T12:44:49.980Z,0.70
2018-05-13T12:47:18.557Z,1.00
2018-05-13T12:49:45.971Z,0.70
2018-05-13T12:52:13.375Z,1.00
2018-05-13T12:54:40.809Z,0.70
2018-05-13T12:57:08.243Z,0.80
2018-05-13T12:59:35.659Z,0.60
2018-05-13T13:02:03.103Z,0.70
2018-05-13T13:04:32.202Z,0.68
2018-05-13T13:06:59.604Z,0.70
2018-05-13T13:09:27.123Z,0.95
2018-05-13T13:11:54.618Z,0.80
2018-05-13T13:14:22.111Z,0.60
2018-05-13T13:16:49.639Z,0.77
2018-05-13T13:19:17.031Z,0.60
2018-05-13T13:21:44.457Z,1.12
2018-05-13T13:24:11.872Z,0.93
2018-05-13T13:26:39.275Z,1.00
2018-05-13T13:29:06.722Z,0.80
2018-05-13T13:31:34.122Z,1.20
2018-05-13T13:34:01.560Z,0.75
2018-05-13T13:36:29.079Z,0.80
2018-05-13T13:39:01.149Z,1.05
2018-05-13T13:41:28.583Z,0.60
2018-05-13T13:43:56.039Z,0.98
2018-05-13T13:46:23.474Z,0.90
2018-05-13T13:48:50.937Z,1.12
2018-05-13T13:51:18.811Z,0.70
2018-05-13T13:53:49.943Z,0.70
2018-05-13T13:56:17.391Z,0.98
2018-05-13T13:58:44.982Z,0.60
2018-05-13T14:01:12.424Z,0.70
2018-05-13T14:03:41.116Z,0.95
2018-05-13T14:06:08.617Z,1.27
2018-05-13T14:08:36.832Z,0.95
2018-05-13T14:11:04.315Z,0.68
2018-05-13T14:13:31.806Z,1.05
2018-05-13T14:15:59.247Z,0.90
2018-05-13T14:18:26.710Z,0.73
2018-05-13T14:20:55.277Z,1.23
2018-05-13T14:23:22.675Z,0.68
2018-05-13T14:25:50.172Z,1.40
2018-05-13T14:28:17.603Z,1.10
2018-05-13T14:30:45.213Z,1.10
2018-05-13T14:33:12.663Z,0.70
2018-05-13T14:35:41.560Z,0.90
2018-05-13T14:38:09.267Z,0.90
2018-05-13T14:40:36.635Z,0.80
2018-05-13T14:43:05.143Z,0.70
2018-05-13T14:45:32.586Z,1.00
2018-05-13T14:48:00.009Z,0.70
2018-05-13T14:50:27.450Z,1.85
2018-05-13T14:52:54.903Z,0.95
2018-05-13T14:55:22.519Z,0.82
2018-05-13T14:57:50.800Z,0.60
2018-05-13T15:00:18.233Z,0.70
2018-05-13T15:02:45.680Z,0.60
2018-05-13T15:05:13.092Z,0.60
2018-05-13T15:07:40.497Z,0.80
2018-05-13T15:10:09.828Z,2.70
2018-05-13T15:12:37.257Z,0.70
2018-05-13T15:15:04.701Z,0.85
2018-05-13T15:17:32.124Z,0.60
2018-05-13T15:19:59.603Z,1.30
2018-05-13T15:22:32.649Z,0.90
2018-05-13T15:25:00.089Z,0.70
2018-05-13T15:27:27.556Z,1.20
2018-05-13T15:29:54.989Z,0.65
2018-05-13T15:32:22.454Z,1.00
2018-05-13T15:34:49.883Z,0.52
2018-05-13T15:37:17.354Z,0.80
2018-05-13T15:39:44.763Z,0.60
2018-05-13T15:42:12.238Z,1.20
2018-05-13T15:44:39.628Z,0.73
2018-05-13T15:47:07.103Z,0.80
2018-05-13T15:49:34.537Z,1.30
2018-05-13T15:52:01.964Z,0.90
2018-05-13T15:54:30.014Z,0.80
2018-05-13T15:56:57.422Z,0.70
2018-05-13T15:59:24.939Z,0.85
2018-05-13T16:01:52.395Z,0.88
2018-05-13T16:04:19.798Z,0.90
2018-05-13T16:06:47.238Z,0.70
2018-05-13T16:09:15.416Z,0.70
2018-05-13T16:11:42.839Z,0.80
2018-05-13T16:14:10.425Z,0.90
2018-05-13T16:16:38.634Z,0.70
2018-05-13T16:19:06.387Z,0.90
2018-05-13T16:21:33.922Z,1.12
2018-05-13T16:24:01.450Z,0.93
2018-05-13T16:26:28.928Z,1.55
2018-05-13T16:28:56.365Z,0.80
2018-05-13T16:31:23.832Z,0.70
2018-05-13T16:33:53.034Z,1.12
2018-05-13T16:36:20.503Z,0.70
2018-05-13T16:38:47.912Z,0.80
2018-05-13T16:41:17.203Z,1.23
2018-05-13T16:43:44.721Z,1.15
2018-05-13T16:46:22.516Z,1.08
2018-05-13T16:48:49.940Z,0.80
2018-05-13T16:51:17.376Z,0.70
2018-05-13T16:53:44.828Z,0.93
2018-05-13T16:56:13.090Z,1.02
2018-05-13T16:58:41.221Z,0.68
2018-05-13T17:01:19.658Z,0.80
2018-05-13T17:03:47.239Z,0.90
2018-05-13T17:06:14.666Z,1.15
2018-05-13T17:08:42.107Z,1.10
2018-05-13T17:11:09.515Z,0.80
2018-05-13T17:13:37.001Z,0.68
2018-05-13T17:16:04.472Z,0.75
2018-05-13T17:18:31.999Z,0.80
2018-05-13T17:20:59.448Z,1.52
2018-05-13T17:23:26.949Z,1.00
2018-05-13T17:25:54.488Z,1.17
2018-05-13T17:28:21.933Z,0.77
2018-05-13T17:30:49.401Z,0.60
2018-05-13T17:33:16.811Z,1.52
2018-05-13T17:35:45.084Z,0.68
2018-05-13T17:38:13.396Z,0.85
2018-05-13T17:40:40.932Z,1.45
2018-05-13T17:43:08.363Z,0.80
2018-05-13T17:45:36.840Z,0.65
2018-05-13T17:48:04.278Z,1.10
2018-05-13T17:50:33.572Z,0.80
2018-05-13T17:53:01.008Z,0.70
2018-05-13T17:55:30.125Z,0.82
2018-05-13T17:57:57.577Z,0.73
2018-05-13T18:00:25.951Z,1.20
2018-05-13T18:02:53.378Z,0.88
2018-05-13T18:05:20.813Z,0.62
2018-05-13T18:07:50.280Z,0.70
2018-05-13T18:10:18.350Z,0.75
2018-05-13T18:12:45.810Z,1.08
2018-05-13T18:15:13.348Z,0.98
2018-05-13T18:17:40.935Z,0.68
2018-05-13T18:20:08.410Z,0.80
2018-05-13T18:22:35.898Z,0.77
2018-05-13T18:25:04.040Z,0.50
2018-05-13T18:27:31.581Z,0.70
2018-05-13T18:29:59.085Z,0.77
2018-05-13T18:32:26.501Z,0.95
2018-05-13T18:34:55.033Z,0.80
2018-05-13T18:37:22.436Z,0.70
2018-05-13T18:39:49.862Z,0.70
2018-05-13T18:42:17.300Z,0.90
2018-05-13T18:44:45.894Z,0.85
2018-05-13T18:47:13.375Z,0.70
2018-05-13T18:49:41.026Z,0.60
2018-05-13T18:52:08.499Z,1.00
2018-05-13T18:54:35.982Z,0.93
2018-05-13T18:57:04.631Z,0.90
2018-05-13T18:59:32.096Z,0.90
2018-05-13T19:01:59.538Z,0.90
2018-05-13T19:04:27.016Z,1.58
2018-05-13T19:06:54.481Z,1.15
2018-05-13T19:09:21.952Z,0.80
2018-05-13T19:11:49.405Z,0.80
2018-05-13T19:14:16.840Z,1.00
2018-05-13T19:16:44.293Z,1.00
2018-05-13T19:19:11.747Z,0.77
2018-05-13T19:21:39.243Z,1.70
2018-05-13T19:24:06.733Z,0.82
2018-05-13T19:26:34.221Z,0.80
2018-05-13T19:29:01.635Z,1.90
2018-05-13T19:31:29.044Z,1.20
2018-05-13T19:33:56.475Z,0.80
2018-05-13T19:36:23.945Z,0.90
2018-05-13T19:38:51.407Z,0.85
2018-05-13T19:41:19.897Z,0.77
2018-05-13T19:43:47.789Z,1.10
2018-05-13T19:46:15.203Z,0.60
2018-05-13T19:48:42.631Z,0.95
2018-05-13T19:51:10.069Z,0.60
2018-05-13T19:53:37.535Z,0.80
2018-05-13T19:56:04.964Z,0.90
2018-05-13T19:58:32.362Z,1.00
2018-05-13T20:01:01.230Z,0.93
2018-05-13T20:03:28.858Z,0.90
2018-05-13T20:05:56.070Z,0.60
2018-05-13T20:08:23.483Z,0.62
2018-05-13T20:10:50.918Z,0.82
2018-05-13T20:13:18.305Z,0.80
2018-05-13T20:15:45.932Z,0.80
2018-05-13T20:18:13.381Z,1.00
2018-05-13T20:20:40.800Z,0.90
2018-05-13T20:23:20.127Z,0.62
2018-05-13T20:25:51.231Z,0.93
2018-05-13T20:28:18.663Z,0.70
2018-05-13T20:30:47.276Z,1.15
2018-05-13T20:33:14.825Z,0.70
2018-05-13T20:35:42.272Z,0.80
2018-05-13T20:38:09.712Z,1.20
2018-05-13T20:40:37.209Z,0.70
2018-05-13T20:43:04.701Z,0.68
2018-05-13T20:45:32.157Z,0.65
2018-05-13T20:47:59.674Z,0.80
2018-05-13T20:50:27.125Z,0.70
2018-05-13T20:52:55.251Z,0.80
2018-05-13T20:55:22.664Z,1.23
2018-05-13T20:57:50.702Z,0.70
2018-05-13T21:00:18.244Z,0.95
2018-05-13T21:02:45.765Z,0.52
2018-05-13T21:05:13.303Z,0.73
2018-05-13T21:07:40.685Z,1.15
2018-05-13T21:10:09.007Z,1.27
2018-05-13T21:12:36.463Z,0.90
2018-05-13T21:15:03.858Z,0.80
2018-05-13T21:17:31.279Z,0.80
2018-05-13T21:19:58.812Z,0.90
2018-05-13T21:22:26.212Z,1.05
2018-05-13T21:24:53.615Z,1.02
2018-05-13T21:27:21.037Z,1.02
2018-05-13T21:29:48.469Z,0.93
2018-05-13T21:32:15.884Z,0.82
2018-05-13T21:34:44.075Z,1.30
2018-05-13T21:37:11.670Z,1.10
2018-05-13T21:39:39.102Z,1.40
2018-05-13T21:42:06.505Z,0.88
2018-05-13T21:44:34.120Z,0.98
2018-05-13T21:47:01.805Z,1.65
2018-05-13T21:49:29.168Z,1.17
2018-05-13T21:51:56.611Z,1.25
2018-05-13T21:54:24.916Z,1.10
2018-05-13T21:56:52.700Z,0.90
2018-05-13T21:59:20.099Z,1.52
2018-05-13T22:01:47.585Z,1.00
2018-05-13T22:04:15.150Z,0.80
2018-05-13T22:06:43.590Z,0.98
2018-05-13T22:09:13.535Z,1.62
2018-05-13T22:11:40.935Z,1.10
2018-05-13T22:14:08.407Z,0.80
2018-05-13T22:16:35.833Z,1.15
2018-05-13T22:19:03.401Z,1.05
2018-05-13T22:21:30.975Z,1.02
2018-05-13T22:23:58.453Z,1.50
2018-05-13T22:26:25.930Z,0.80
2018-05-13T22:28:53.367Z,1.25
2018-05-13T22:31:21.216Z,2.10
2018-05-13T22:33:48.769Z,1.87
2018-05-13T22:36:16.214Z,2.22
2018-05-13T22:38:43.658Z,1.70
2018-05-13T22:41:11.103Z,1.30
2018-05-13T22:43:38.546Z,1.10
2018-05-13T22:46:06.841Z,1.23
2018-05-13T22:48:34.289Z,0.88
2018-05-13T22:51:02.784Z,0.90
2018-05-13T22:53:30.247Z,0.88
2018-05-13T22:55:57.690Z,0.70
2018-05-13T22:58:25.238Z,0.93
2018-05-13T23:00:52.639Z,1.00
2018-05-13T23:03:20.680Z,0.82
2018-05-13T23:05:49.264Z,0.82
2018-05-13T23:08:17.564Z,0.93
2018-05-13T23:10:44.965Z,0.80
2018-05-13T23:13:12.498Z,0.68
2018-05-13T23:15:39.919Z,0.60
2018-05-13T23:18:07.391Z,1.10
2018-05-13T23:20:36.783Z,0.62
2018-05-13T23:23:04.231Z,0.60
2018-05-13T23:25:31.651Z,0.60
2018-05-13T23:27:59.106Z,0.60
2018-05-13T23:30:26.575Z,1.10
2018-05-13T23:32:54.073Z,0.73
2018-05-13T23:35:21.509Z,0.85
2018-05-13T23:37:48.899Z,0.95
2018-05-13T23:40:16.371Z,0.70
2018-05-13T23:42:43.817Z,1.62
2018-05-13T23:45:11.289Z,1.73
2018-05-13T23:47:38.777Z,1.52
2018-05-13T23:50:06.246Z,2.08
2018-05-13T23:52:35.146Z,1.58
2018-05-13T23:55:02.560Z,1.50
2018-05-13T23:57:30.969Z,1.15
2018-05-13T23:59:58.395Z,1.00
